Time;durP1;ratioP1;P1;durP2;ratioP2;P2;SDS_P1;SDS_P2;PMS_P1;PMS_P2;Temp;Humidity;BMP_temperature;BMP_pressure;BME280_temperature;BME280_humidity;BME280_pressure;Samples;Min_cycle;Max_cycle;Signal;HPM_P1;HPM_P2
2022/06/02 00:00:24;;;;;;;8.95;8.27;;;;;;;7.59;100.00;101949.13;4969180;28;20034;-66
2022/06/02 00:03:19;;;;;;;9.45;8.60;;;;;;;7.58;100.00;101949.94;4967442;28;20035;-65
2022/06/02 00:06:19;;;;;;;9.40;8.50;;;;;;;7.54;100.00;101942.81;4969247;28;20096;-65
2022/06/02 00:09:05;;;;;;;9.95;8.95;;;;;;;7.52;100.00;101950.44;4965777;28;20089;-66
2022/06/02 00:11:48;;;;;;;9.57;8.75;;;;;;;7.49;100.00;101950.28;4968596;28;20031;-65
2022/06/02 00:14:36;;;;;;;9.38;8.10;;;;;;;7.45;100.00;101956.91;4968153;28;20121;-65
2022/06/02 00:17:22;;;;;;;8.70;8.00;;;;;;;7.43;100.00;101949.88;4967193;28;20026;-65
2022/06/02 00:20:08;;;;;;;9.88;9.07;;;;;;;7.41;100.00;101951.47;4968716;28;20093;-65
2022/06/02 00:22:55;;;;;;;9.35;8.45;;;;;;;7.39;100.00;101958.22;4968754;28;20062;-65
2022/06/02 00:25:34;;;;;;;9.20;8.50;;;;;;;7.33;100.00;101958.72;4968988;28;20387;-66
2022/06/02 00:28:02;;;;;;;9.15;8.32;;;;;;;7.29;100.00;101956.75;4967280;28;20077;-65
2022/06/02 00:30:51;;;;;;;9.50;8.70;;;;;;;7.26;100.00;101959.13;4966051;28;20059;-65
2022/06/02 00:33:28;;;;;;;10.27;9.05;;;;;;;7.22;100.00;101958.03;4968284;28;20027;-65
2022/06/02 00:35:58;;;;;;;11.45;9.68;;;;;;;7.20;100.00;101952.78;4966575;28;20026;-66
2022/06/02 00:38:34;;;;;;;10.05;9.15;;;;;;;7.18;100.00;101956.94;4968402;28;20041;-66
2022/06/02 00:41:40;;;;;;;11.75;10.60;;;;;;;7.15;100.00;101959.34;4964701;28;20073;-66
2022/06/02 00:44:14;;;;;;;11.88;10.88;;;;;;;7.15;100.00;101959.34;4961612;28;20050;-66
2022/06/02 00:46:51;;;;;;;12.95;11.85;;;;;;;7.15;100.00;101958.44;4967750;28;20033;-65
2022/06/02 00:49:33;;;;;;;13.77;12.55;;;;;;;7.16;100.00;101963.69;4966057;28;20089;-66
2022/06/02 00:52:20;;;;;;;13.32;12.18;;;;;;;7.16;100.00;101965.41;4963031;28;20027;-65
2022/06/02 00:58:23;;;;;;;15.07;13.77;;;;;;;7.11;100.00;101969.34;4968325;28;20497;-65
2022/06/02 01:01:00;;;;;;;14.60;13.10;;;;;;;7.06;100.00;101974.22;4966953;28;20518;-65
2022/06/02 01:03:38;;;;;;;15.15;13.75;;;;;;;7.02;100.00;101972.22;4966956;28;20042;-65
2022/06/02 01:06:25;;;;;;;12.88;11.65;;;;;;;6.99;100.00;101972.03;4967901;28;20117;-65
2022/06/02 01:09:17;;;;;;;12.90;11.80;;;;;;;6.93;100.00;101967.34;4967495;28;20034;-65
2022/06/02 01:12:06;;;;;;;13.35;12.15;;;;;;;6.88;100.00;101964.50;4966122;28;20034;-65
2022/06/02 01:14:45;;;;;;;13.95;12.65;;;;;;;6.85;100.00;101966.88;4963535;28;20030;-65
2022/06/02 01:17:16;;;;;;;12.88;11.68;;;;;;;6.81;100.00;101962.31;4965285;28;20463;-65
2022/06/02 01:19:56;;;;;;;;;;;;;;;6.78;100.00;101962.13;4968246;28;20570;-65
2022/06/02 01:22:24;;;;;;;11.98;10.80;;;;;;;6.75;100.00;101961.88;4966370;28;19917;-65
2022/06/02 01:25:08;;;;;;;12.23;11.23;;;;;;;6.72;100.00;101963.50;4965235;28;20027;-65
2022/06/02 01:27:59;;;;;;;12.75;11.65;;;;;;;6.71;100.00;101955.69;4967541;28;20034;-65
2022/06/02 01:30:39;;;;;;;12.67;11.47;;;;;;;6.70;100.00;101956.44;4966327;28;20523;-65
2022/06/02 01:33:16;;;;;;;12.10;11.05;;;;;;;6.66;100.00;101957.94;4966566;28;20068;-65
2022/06/02 01:36:11;;;;;;;13.48;12.27;;;;;;;6.62;100.00;101961.09;4965822;28;20026;-64
2022/06/02 01:38:44;;;;;;;15.60;14.18;;;;;;;6.61;100.00;101956.72;4966720;28;20038;-65
2022/06/02 01:41:30;;;;;;;16.17;14.70;;;;;;;6.61;100.00;101967.03;4967074;28;20019;-65
2022/06/02 01:44:18;;;;;;;15.98;14.70;;;;;;;6.60;100.00;101970.41;4966925;28;20026;-65
2022/06/02 01:47:05;;;;;;;15.40;14.00;;;;;;;6.55;100.00;101967.50;4966239;28;20487;-65
2022/06/02 01:49:53;;;;;;;15.90;13.98;;;;;;;6.53;100.00;101970.78;4964334;28;20022;-64
2022/06/02 01:52:43;;;;;;;15.55;14.05;;;;;;;6.47;100.00;101967.03;4967170;28;20034;-65
2022/06/02 01:55:43;;;;;;;15.07;13.88;;;;;;;6.43;100.00;101958.97;4953745;28;20496;-65
2022/06/02 01:58:38;;;;;;;15.68;14.23;;;;;;;6.40;100.00;101959.69;4966258;28;20179;-65
2022/06/02 02:01:22;;;;;;;15.63;14.20;;;;;;;6.37;100.00;101956.88;4963137;28;20131;-65
2022/06/02 02:04:10;;;;;;;15.90;14.40;;;;;;;6.35;100.00;101956.78;4966686;28;20287;-65
2022/06/02 02:07:13;;;;;;;18.00;15.13;;;;;;;6.34;100.00;101960.16;4965494;28;20483;-65
2022/06/02 02:10:02;;;;;;;15.87;14.47;;;;;;;6.27;100.00;101957.03;4967133;28;20034;-65
2022/06/02 02:12:43;;;;;;;15.55;14.25;;;;;;;6.18;100.00;101972.75;4964131;28;20126;-65
2022/06/02 02:15:16;;;;;;;;;;;;;;;6.15;100.00;101977.72;4966292;28;20031;-65
2022/06/02 02:17:54;;;;;;;15.73;14.20;;;;;;;6.13;100.00;101975.03;4966878;28;19985;-65
2022/06/02 02:20:29;;;;;;;16.07;14.37;;;;;;;6.10;100.00;101979.94;4966761;28;20400;-65
2022/06/02 02:23:21;;;;;;;16.87;15.13;;;;;;;6.07;100.00;101984.88;4962983;28;20030;-65
2022/06/02 02:26:01;;;;;;;17.58;15.73;;;;;;;6.03;100.00;101978.59;4965820;28;20030;-65
2022/06/02 02:28:50;;;;;;;17.90;16.35;;;;;;;6.02;100.00;101981.97;4966947;28;20382;-65
2022/06/02 02:31:30;;;;;;;18.00;16.40;;;;;;;6.03;100.00;101982.88;4964932;28;20034;-65
2022/06/02 02:34:03;;;;;;;19.33;17.53;;;;;;;6.03;100.00;101980.31;4964299;28;20419;-65
2022/06/02 02:36:40;;;;;;;18.70;16.93;;;;;;;6.03;100.00;101980.31;4966610;28;20046;-65
2022/06/02 02:39:25;;;;;;;19.10;17.40;;;;;;;6.00;100.00;101979.31;4966072;28;20151;-65
2022/06/02 02:41:59;;;;;;;17.83;16.23;;;;;;;6.01;100.00;101978.50;4966688;28;20512;-65
2022/06/02 02:44:24;;;;;;;17.83;16.15;;;;;;;6.03;100.00;101980.31;4966912;28;20057;-65
2022/06/02 02:47:14;;;;;;;18.55;16.67;;;;;;;6.01;100.00;101982.75;4966695;28;20062;-65
2022/06/02 02:50:08;;;;;;;17.95;16.25;;;;;;;6.01;100.00;101988.78;4965209;28;20395;-65
2022/06/02 02:52:43;;;;;;;18.97;17.23;;;;;;;6.03;100.00;101990.59;4953522;28;20043;-65
2022/06/02 02:55:33;;;;;;;18.23;16.43;;;;;;;6.01;100.00;101985.31;4964636;28;20031;-65
2022/06/02 02:58:32;;;;;;;18.10;16.40;;;;;;;5.96;100.00;101990.16;4965289;28;20147;-65
2022/06/02 03:01:12;;;;;;;17.67;16.07;;;;;;;5.93;100.00;101987.38;4964102;28;20073;-65
2022/06/02 03:03:44;;;;;;;17.83;16.23;;;;;;;5.89;100.00;101990.53;4965505;28;20034;-65
2022/06/02 03:06:20;;;;;;;16.77;15.27;;;;;;;5.84;100.00;101989.31;4964151;28;20041;-65
2022/06/02 03:09:08;;;;;;;17.27;15.77;;;;;;;5.81;100.00;102000.25;4966529;28;20117;-65
2022/06/02 03:11:51;;;;;;;19.30;17.47;;;;;;;5.76;100.00;101993.91;4964124;28;20307;-65
2022/06/02 03:14:35;;;;;;;17.33;15.73;;;;;;;5.74;100.00;102001.50;4968500;28;20039;-65
2022/06/02 03:17:16;;;;;;;18.27;16.57;;;;;;;5.73;100.00;102002.31;4966848;28;20057;-65
2022/06/02 03:19:47;;;;;;;18.50;16.90;;;;;;;5.73;100.00;102006.56;4966465;28;20054;-65
2022/06/02 03:22:29;;;;;;;17.57;16.07;;;;;;;5.72;100.00;102002.22;4965011;28;20042;-65
2022/06/02 03:25:07;;;;;;;17.70;16.00;;;;;;;5.70;100.00;102014.06;4968433;28;20050;-65
2022/06/02 03:27:43;;;;;;;17.77;16.20;;;;;;;5.69;100.00;102012.25;4967187;28;20379;-64
2022/06/02 03:30:22;;;;;;;17.80;16.10;;;;;;;5.65;100.00;102013.72;4965749;28;20031;-64
2022/06/02 03:33:15;;;;;;;17.23;15.73;;;;;;;5.64;100.00;102019.66;4969339;28;20031;-65
2022/06/02 03:35:54;;;;;;;19.10;17.13;;;;;;;5.62;100.00;102019.56;4969107;28;20085;-65
2022/06/02 03:38:34;;;;;;;19.33;17.43;;;;;;;5.60;100.00;102033.06;4970033;28;20045;-65
2022/06/02 03:41:36;;;;;;;19.23;17.35;;;;;;;5.58;100.00;102035.53;4964893;28;20511;-64
2022/06/02 03:44:19;;;;;;;18.27;16.67;;;;;;;5.53;100.00;102027.50;4969789;28;20546;-65
2022/06/02 03:47:21;;;;;;;19.37;17.67;;;;;;;5.52;100.00;102033.41;4969553;28;20475;-65
2022/06/02 03:50:13;;;;;;;19.07;17.37;;;;;;;5.50;100.00;102037.59;4968787;28;20494;-65
2022/06/02 03:53:07;;;;;;;;;;;;;;;5.51;100.00;102034.22;4969418;28;20042;-64
2022/06/02 03:55:56;;;;;;;19.70;17.60;;;;;;;5.53;100.00;102036.91;4947101;28;19910;-65
2022/06/02 03:58:30;;;;;;;21.07;19.03;;;;;;;5.55;100.00;102042.13;4953888;28;20146;-65
2022/06/02 04:01:03;;;;;;;20.97;18.97;;;;;;;5.57;100.00;102048.28;4955272;28;20412;-65
2022/06/02 04:03:48;;;;;;;21.40;19.43;;;;;;;5.59;100.00;102051.88;4963548;28;20030;-64
2022/06/02 04:06:45;;;;;;;21.50;19.43;;;;;;;5.60;100.00;102048.50;4969381;28;20049;-65
2022/06/02 04:09:52;;;;;;;22.37;20.43;;;;;;;5.63;100.00;102051.31;4965084;28;20030;-65
2022/06/02 04:15:58;;;;;;;22.27;20.23;;;;;;;5.72;100.00;102051.09;4968686;28;20163;-64
2022/06/02 04:18:48;;;;;;;23.10;21.00;;;;;;;5.75;100.00;102049.63;4956363;28;20128;-64
2022/06/02 04:21:36;;;;;;;21.37;19.47;;;;;;;5.82;100.00;102060.34;4968483;28;20309;-65
2022/06/02 04:24:48;;;;;;;21.87;19.70;;;;;;;5.87;100.00;102059.88;4968339;28;20137;-65
2022/06/02 04:27:38;;;;;;;23.20;21.05;;;;;;;5.94;100.00;102062.88;4967072;28;20034;-65
2022/06/02 04:30:09;;;;;;;24.53;22.33;;;;;;;5.97;100.00;102063.97;4968752;28;21408;-65
2022/06/02 04:32:43;;;;;;;25.17;22.95;;;;;;;6.00;100.00;102059.09;4962897;28;20037;-64
2022/06/02 04:35:20;;;;;;;25.88;23.38;;;;;;;6.06;100.00;102065.47;4953981;28;20058;-65
2022/06/02 04:38:13;;;;;;;26.07;23.70;;;;;;;6.11;100.00;102064.13;4959456;28;20022;-64
2022/06/02 04:40:56;;;;;;;25.07;22.60;;;;;;;6.18;100.00;102071.47;4951157;28;20431;-65
2022/06/02 04:43:29;;;;;;;25.40;22.90;;;;;;;6.24;100.00;102071.88;4960639;28;20027;-64
2022/06/02 04:46:15;;;;;;;26.38;23.85;;;;;;;6.30;100.00;102071.44;4962313;28;20454;-65
2022/06/02 04:48:55;;;;;;;28.03;25.23;;;;;;;6.34;100.00;102072.53;4968601;28;20038;-65
2022/06/02 04:51:48;;;;;;;28.63;25.93;;;;;;;6.41;100.00;102074.75;4968822;28;20093;-65
2022/06/02 04:54:32;;;;;;;27.90;25.23;;;;;;;6.51;100.00;102068.56;4967959;28;20046;-65
2022/06/02 04:57:07;;;;;;;29.63;26.87;;;;;;;6.60;100.00;102078.59;4968644;28;20085;-65
2022/06/02 04:59:47;;;;;;;31.60;28.57;;;;;;;6.69;100.00;102081.78;4969300;28;20073;-65
2022/06/02 05:02:23;;;;;;;31.98;28.58;;;;;;;6.82;100.00;102078.34;4969081;28;20019;-65
2022/06/02 05:05:06;;;;;;;31.65;28.58;;;;;;;6.93;100.00;102079.06;4968611;28;20069;-65
2022/06/02 05:07:50;;;;;;;31.33;28.08;;;;;;;7.06;100.00;102077.31;4966689;28;20491;-64
2022/06/02 05:10:41;;;;;;;33.15;29.92;;;;;;;7.22;100.00;102076.66;4964321;28;20031;-65
2022/06/02 05:13:18;;;;;;;32.25;29.15;;;;;;;7.36;100.00;102082.69;4983627;28;20475;-65
2022/06/02 05:16:11;;;;;;;36.65;29.60;;;;;;;7.51;100.00;102081.91;4968532;28;20030;-65
2022/06/02 05:19:15;;;;;;;33.53;30.23;;;;;;;7.65;100.00;102085.38;4968519;28;20030;-65
2022/06/02 05:22:12;;;;;;;30.52;27.55;;;;;;;7.81;100.00;102080.41;4936146;28;20113;-65
2022/06/02 05:24:57;;;;;;;33.97;30.77;;;;;;;7.96;100.00;102083.84;4959582;28;20027;-65
2022/06/02 05:27:50;;;;;;;36.35;32.92;;;;;;;8.11;100.00;102077.06;4955543;28;20477;-64
2022/06/02 05:30:52;;;;;;;34.13;30.95;;;;;;;8.28;100.00;102077.22;4965324;28;20033;-64
2022/06/02 05:33:30;;;;;;;32.67;29.52;;;;;;;8.46;100.00;102081.72;4968148;28;20054;-64
2022/06/02 05:35:58;;;;;;;30.73;27.92;;;;;;;8.59;100.00;102080.81;4967122;28;20476;-65
2022/06/02 05:38:41;;;;;;;33.25;30.17;;;;;;;8.73;100.00;102073.88;4967883;28;20041;-64
2022/06/02 05:41:19;;;;;;;32.15;29.17;;;;;;;8.87;100.00;102077.25;4967607;28;20022;-65
2022/06/02 05:44:08;;;;;;;33.72;30.52;;;;;;;8.99;100.00;102082.28;4968580;28;20050;-64
2022/06/02 05:46:58;;;;;;;32.70;29.67;;;;;;;9.07;100.00;102078.44;4967910;28;20034;-64
2022/06/02 05:49:41;;;;;;;32.13;29.15;;;;;;;9.19;100.00;102085.13;4966545;28;20054;-64
2022/06/02 05:52:32;;;;;;;30.38;27.73;;;;;;;9.31;100.00;102085.84;4959597;28;20376;-64
2022/06/02 05:55:03;;;;;;;32.90;29.48;;;;;;;9.43;100.00;102085.63;4963890;28;20030;-64
2022/06/02 05:57:43;;;;;;;32.90;30.00;;;;;;;9.59;100.00;102087.38;4968282;28;20039;-64
2022/06/02 06:00:28;;;;;;;32.58;29.60;;;;;;;9.79;100.00;102092.78;4957165;28;20026;-64
2022/06/02 06:03:04;;;;;;;31.77;29.00;;;;;;;9.99;100.00;102100.75;4954667;28;20118;-65
2022/06/02 06:05:44;;;;;;;30.50;27.85;;;;;;;10.14;100.00;102098.13;4967766;28;20499;-64
2022/06/02 06:08:37;;;;;;;32.83;29.90;;;;;;;10.31;100.00;102101.59;4968014;28;20054;-64
2022/06/02 06:11:16;;;;;;;32.97;30.05;;;;;;;10.50;100.00;102099.13;4968281;28;20038;-64
2022/06/02 06:14:13;;;;;;;33.38;30.45;;;;;;;10.73;100.00;102100.34;4967986;28;20312;-64
2022/06/02 06:16:44;;;;;;;31.30;28.35;;;;;;;10.91;100.00;102109.88;4968336;28;20106;-64
2022/06/02 06:19:09;;;;;;;;;;;;;;;11.07;100.00;102115.81;4968612;28;20102;-64
2022/06/02 06:22:00;;;;;;;29.73;26.92;;;;;;;11.24;100.00;102114.94;4967342;28;20032;-64
2022/06/02 06:25:03;;;;;;;27.23;24.93;;;;;;;11.42;100.00;102124.50;4950950;28;20491;-64
2022/06/02 06:27:28;;;;;;;27.02;24.67;;;;;;;11.61;100.00;102125.38;4965598;28;20273;-64
2022/06/02 06:30:01;;;;;;;21.85;20.05;;;;;;;11.75;100.00;102124.31;4966184;28;20035;-64
2022/06/02 06:32:29;;;;;;;19.55;17.77;;;;;;;11.90;100.00;102125.88;4967119;28;20027;-64
2022/06/02 06:35:20;;;;;;;17.25;15.68;;;;;;;12.08;100.00;102125.84;4967583;28;20070;-64
2022/06/02 06:37:49;;;;;;;;;;;;;;;12.26;100.00;102132.75;4968617;28;20027;-64
2022/06/02 06:40:43;;;;;;;15.50;14.20;;;;;;;12.51;100.00;102131.25;4968371;28;20380;-64
2022/06/02 06:43:24;;;;;;;16.67;15.25;;;;;;;12.69;98.49;102133.78;4966838;28;20479;-65
2022/06/02 06:46:13;;;;;;;15.18;13.88;;;;;;;12.85;97.19;102139.63;4968754;28;20034;-64
2022/06/02 06:49:04;;;;;;;16.70;15.25;;;;;;;12.99;95.37;102136.75;4970340;28;20023;-64
2022/06/02 06:51:59;;;;;;;16.13;14.63;;;;;;;13.11;95.60;102139.88;4970509;28;20022;-64
2022/06/02 06:54:51;;;;;;;15.07;13.65;;;;;;;13.28;94.06;102143.19;4958018;28;20522;-65
2022/06/02 06:57:27;;;;;;;15.93;14.50;;;;;;;13.40;92.04;102134.13;4970618;28;20177;-64
2022/06/02 07:00:08;;;;;;;15.13;13.68;;;;;;;13.59;93.63;102140.06;4970647;28;20510;-64
2022/06/02 07:02:54;;;;;;;13.70;12.65;;;;;;;13.76;90.99;102148.59;4957476;28;20027;-64
2022/06/02 07:05:33;;;;;;;14.20;13.07;;;;;;;13.91;90.23;102138.75;4959721;28;20073;-65
2022/06/02 07:08:19;;;;;;;13.18;12.10;;;;;;;14.16;89.29;102149.22;4971138;28;20663;-64
2022/06/02 07:12:50;;;;;;;12.57;11.50;;;;;;;14.36;87.79;102144.78;4971381;28;20054;-65
2022/06/02 07:14:22;;;;;;;9.95;9.15;;;;;;;14.51;84.39;102151.38;4971014;28;20039;-65
2022/06/02 07:16:55;;;;;;;10.32;9.43;;;;;;;14.63;81.90;102159.66;4970929;28;20049;-65
2022/06/02 07:19:45;;;;;;;9.05;8.23;;;;;;;14.60;81.44;102156.03;4971085;28;20034;-65
2022/06/02 07:22:14;;;;;;;10.63;9.50;;;;;;;14.61;82.71;102161.31;4958015;28;20027;-65
2022/06/02 07:24:51;;;;;;;10.65;9.75;;;;;;;14.56;81.32;102161.97;4971305;28;20050;-65
2022/06/02 07:27:29;;;;;;;11.52;10.60;;;;;;;14.40;81.37;102164.03;4958170;28;20027;-64
2022/06/02 07:30:25;;;;;;;12.60;11.60;;;;;;;14.50;81.78;102165.25;4971029;28;20035;-65
2022/06/02 07:33:11;;;;;;;12.18;11.18;;;;;;;14.58;81.94;102166.44;4970449;28;20034;-65
2022/06/02 07:35:51;;;;;;;10.98;10.07;;;;;;;14.89;82.38;102167.53;4970500;28;20058;-65
2022/06/02 07:38:33;;;;;;;10.93;10.02;;;;;;;15.30;80.59;102170.66;4970621;28;20041;-65
2022/06/02 07:41:02;;;;;;;8.57;7.85;;;;;;;15.59;75.85;102168.13;4958780;28;20170;-64
2022/06/02 07:44:07;;;;;;;9.30;8.50;;;;;;;15.77;73.44;102166.94;4970800;28;20042;-65
2022/06/02 07:46:41;;;;;;;10.73;9.75;;;;;;;15.65;74.03;102170.91;4962263;28;20022;-64
2022/06/02 07:49:26;;;;;;;9.88;9.07;;;;;;;15.46;75.11;102180.78;4969804;28;20015;-65
2022/06/02 07:52:05;;;;;;;10.30;9.43;;;;;;;15.17;74.59;102165.00;4970881;28;20038;-64
2022/06/02 07:54:40;;;;;;;10.57;9.70;;;;;;;14.93;74.33;102175.50;4970832;28;20026;-65
2022/06/02 07:57:08;;;;;;;10.48;9.57;;;;;;;14.62;75.05;102170.94;4969372;28;20037;-65
2022/06/02 07:59:51;;;;;;;9.73;8.88;;;;;;;14.35;77.42;102174.28;4970242;28;20045;-65
2022/06/02 08:02:47;;;;;;;10.07;9.10;;;;;;;14.22;79.78;102175.53;4959606;28;20046;-65
2022/06/02 08:05:42;;;;;;;11.57;10.48;;;;;;;14.20;79.74;102176.31;4957757;28;20054;-65
2022/06/02 08:08:29;;;;;;;8.25;7.65;;;;;;;14.63;79.62;102157.03;4971181;28;20251;-65
2022/06/02 08:11:21;;;;;;;9.82;9.02;;;;;;;15.29;80.50;102168.88;4970755;28;20026;-65
2022/06/02 08:14:18;;;;;;;8.75;7.95;;;;;;;15.71;75.34;102167.63;4958764;28;20031;-65
2022/06/02 08:17:16;;;;;;;8.93;8.23;;;;;;;15.57;72.04;102165.47;4969009;28;20043;-65
2022/06/02 08:19:57;;;;;;;7.40;6.80;;;;;;;15.28;72.79;102160.16;4968461;28;20058;-65
2022/06/02 08:22:34;;;;;;;8.52;7.85;;;;;;;15.01;72.57;102161.00;4969946;28;20056;-65
2022/06/02 08:25:10;;;;;;;7.82;7.22;;;;;;;14.75;73.17;102160.94;4969303;28;20415;-65
2022/06/02 08:27:53;;;;;;;8.18;7.47;;;;;;;14.55;73.80;102161.09;4969917;28;20043;-65
2022/06/02 08:30:24;;;;;;;7.70;7.13;;;;;;;14.47;73.57;102159.91;4969584;28;20437;-64
2022/06/02 08:33:03;;;;;;;6.93;6.43;;;;;;;14.84;73.57;102161.28;4969934;28;20058;-65
2022/06/02 08:35:57;;;;;;;8.40;7.80;;;;;;;15.39;72.24;102164.84;4969884;28;20057;-65
2022/06/02 08:38:37;;;;;;;7.40;6.80;;;;;;;15.98;73.09;102174.53;4970508;28;20089;-66
2022/06/02 08:41:30;;;;;;;6.53;6.03;;;;;;;16.58;72.17;102169.34;4970611;28;20031;-65
2022/06/02 08:44:38;;;;;;;7.45;6.85;;;;;;;17.12;67.36;102166.44;4968985;28;20442;-65
2022/06/02 08:47:28;;;;;;;6.38;5.80;;;;;;;17.48;64.32;102170.84;4969684;28;20027;-65
2022/06/02 08:50:15;;;;;;;5.32;4.93;;;;;;;17.68;64.42;102177.41;4969358;28;20511;-65
2022/06/02 08:52:46;;;;;;;6.32;5.78;;;;;;;17.84;66.27;102181.25;4969593;28;20146;-65
2022/06/02 08:55:19;;;;;;;;;;;;;;;18.06;65.12;102182.59;4970184;28;20031;-65
2022/06/02 08:58:16;;;;;;;5.63;5.07;;;;;;;18.40;64.73;102174.63;4969362;28;20322;-65
2022/06/02 09:01:01;;;;;;;7.70;6.10;;;;;;;18.57;60.63;102182.84;4968940;28;20026;-65
2022/06/02 09:03:59;;;;;;;6.63;6.18;;;;;;;18.27;58.90;102180.47;4957259;28;20031;-65
2022/06/02 09:06:58;;;;;;;5.95;5.45;;;;;;;17.86;60.62;102177.81;4969556;28;20110;-66
2022/06/02 09:09:53;;;;;;;6.43;5.78;;;;;;;17.74;62.25;102175.78;4969336;28;20081;-65
2022/06/02 09:12:36;;;;;;;6.45;5.93;;;;;;;17.99;60.97;102172.84;4959138;28;20123;-66
2022/06/02 09:15:34;;;;;;;6.88;6.25;;;;;;;18.07;58.95;102173.00;4968898;28;20137;-66
2022/06/02 09:18:17;;;;;;;5.18;4.78;;;;;;;18.10;58.43;102173.97;4969662;28;20030;-65
2022/06/02 09:20:57;;;;;;;6.22;5.72;;;;;;;18.14;57.62;102167.09;4969632;28;20554;-66
2022/06/02 09:23:41;;;;;;;6.38;5.80;;;;;;;17.98;57.36;102174.59;4969277;28;20035;-66
2022/06/02 09:26:24;;;;;;;5.90;5.50;;;;;;;17.91;55.92;102179.66;4969482;28;20030;-65
2022/06/02 09:29:20;;;;;;;5.25;4.85;;;;;;;18.03;57.21;102173.78;4969101;28;20027;-65
2022/06/02 09:31:57;;;;;;;5.35;5.05;;;;;;;18.34;59.84;102167.50;4969236;28;20054;-65
2022/06/02 09:34:53;;;;;;;4.95;4.60;;;;;;;18.65;58.59;102167.25;4969510;28;20042;-65
2022/06/02 09:37:28;;;;;;;6.55;5.95;;;;;;;18.91;56.42;102172.09;4969512;28;20022;-65
2022/06/02 09:40:12;;;;;;;6.07;5.68;;;;;;;18.92;57.75;102166.00;4968923;28;20217;-66
2022/06/02 09:42:56;;;;;;;7.00;6.60;;;;;;;18.91;56.14;102164.22;4956932;28;20109;-65
2022/06/02 09:45:59;;;;;;;6.82;6.32;;;;;;;18.97;59.07;102160.81;4969275;28;20673;-66
2022/06/02 09:48:39;;;;;;;6.65;6.03;;;;;;;19.23;57.12;102167.41;4969170;28;20030;-66
2022/06/02 09:51:07;;;;;;;6.80;6.30;;;;;;;19.37;54.82;102159.75;4955888;28;20541;-65
2022/06/02 09:53:51;;;;;;;6.45;5.95;;;;;;;19.35;54.12;102161.47;4968053;28;20113;-65
2022/06/02 09:56:44;;;;;;;6.03;5.53;;;;;;;19.46;54.86;102156.38;4968989;28;20022;-66
2022/06/02 09:59:28;;;;;;;6.57;5.38;;;;;;;19.44;52.48;102172.13;4968556;28;20054;-65
2022/06/02 10:02:25;;;;;;;6.25;5.75;;;;;;;19.24;53.04;102163.91;4960294;28;20039;-66
2022/06/02 10:05:13;;;;;;;5.40;5.00;;;;;;;19.34;54.98;102159.72;4966333;28;20027;-65
2022/06/02 10:07:58;;;;;;;5.47;5.10;;;;;;;19.24;50.55;102161.28;4968936;28;20510;-65
2022/06/02 10:10:39;;;;;;;5.68;5.28;;;;;;;19.12;53.91;102169.84;4956788;28;20023;-65
2022/06/02 10:13:42;;;;;;;5.32;4.97;;;;;;;19.30;55.27;102164.03;4967952;28;20093;-66
2022/06/02 10:16:30;;;;;;;5.18;4.78;;;;;;;19.36;54.79;102164.13;4968009;28;20066;-66
2022/06/02 10:19:16;;;;;;;5.95;5.45;;;;;;;19.51;52.78;102159.97;4958032;28;20031;-65
2022/06/02 10:22:13;;;;;;;6.18;5.57;;;;;;;19.46;52.17;102153.75;4972433;28;20077;-65
2022/06/02 10:25:24;;;;;;;6.00;5.43;;;;;;;19.47;53.92;102155.50;4971958;28;20521;-65
2022/06/02 10:28:34;;;;;;;5.88;5.38;;;;;;;19.75;54.46;102156.81;4967679;28;20035;-65
2022/06/02 10:31:13;;;;;;;7.55;6.93;;;;;;;19.65;49.94;102155.81;4972010;28;20323;-66
2022/06/02 10:33:47;;;;;;;7.35;6.38;;;;;;;19.48;52.85;102147.66;4972183;28;20034;-65
2022/06/02 10:36:38;;;;;;;7.63;7.03;;;;;;;19.17;50.00;102153.31;4971982;28;20033;-65
2022/06/02 10:39:39;;;;;;;6.68;6.28;;;;;;;19.17;54.33;102153.31;4971248;28;20042;-66
2022/06/02 10:42:14;;;;;;;7.25;6.65;;;;;;;19.24;51.65;102150.78;4971721;28;20081;-66
2022/06/02 10:45:04;;;;;;;6.88;6.38;;;;;;;19.29;52.70;102155.25;4971835;28;20035;-66
2022/06/02 10:47:49;;;;;;;6.30;5.80;;;;;;;19.40;53.48;102149.28;4971425;28;20023;-66
2022/06/02 10:50:40;;;;;;;7.03;6.53;;;;;;;19.47;54.75;102145.00;4970965;28;20030;-66
2022/06/02 10:53:29;;;;;;;7.00;6.40;;;;;;;19.53;54.07;102145.13;4961017;28;20057;-66
2022/06/02 10:56:13;;;;;;;6.07;5.68;;;;;;;19.31;52.37;102145.66;4971555;28;20055;-65
2022/06/02 10:59:10;;;;;;;6.72;6.13;;;;;;;18.93;51.63;102138.88;4972072;28;20085;-66
2022/06/02 11:01:50;;;;;;;6.60;5.97;;;;;;;18.62;51.93;102140.91;4961688;28;20150;-66
2022/06/02 11:05:09;;;;;;;5.78;5.38;;;;;;;18.54;52.65;102139.91;4971335;28;20074;-65
2022/06/02 11:07:43;;;;;;;5.40;5.00;;;;;;;18.89;54.68;102139.66;4963685;28;20487;-66
2022/06/02 11:10:11;;;;;;;6.40;5.90;;;;;;;19.31;53.52;102134.25;4971278;28;20031;-65
2022/06/02 11:13:14;;;;;;;6.25;5.85;;;;;;;19.61;52.59;102137.34;4971173;28;20038;-66
2022/06/02 11:16:12;;;;;;;6.13;5.63;;;;;;;19.99;56.80;102133.47;4960848;28;20038;-66
2022/06/02 11:19:05;;;;;;;5.45;5.05;;;;;;;20.26;50.33;102132.06;4970945;28;20077;-66
2022/06/02 11:22:05;;;;;;;5.35;4.97;;;;;;;20.08;50.50;102131.00;4970665;28;20128;-66
2022/06/02 11:24:37;;;;;;;4.83;4.47;;;;;;;20.25;46.90;102135.59;4971029;28;20035;-66
2022/06/02 11:27:11;;;;;;;6.20;5.70;;;;;;;20.23;48.22;102129.41;4970348;28;20360;-66
2022/06/02 11:29:48;;;;;;;4.50;4.10;;;;;;;20.40;50.88;102127.84;4971113;28;20109;-66
2022/06/02 11:32:36;;;;;;;4.63;4.32;;;;;;;20.54;50.27;102127.16;4970322;28;20068;-66
2022/06/02 11:35:05;;;;;;;5.20;4.80;;;;;;;20.50;47.89;102120.06;4970542;28;20034;-66
2022/06/02 11:38:12;;;;;;;4.85;4.55;;;;;;;19.99;48.56;102122.94;4970422;28;20401;-65
2022/06/02 11:41:07;;;;;;;5.35;4.82;;;;;;;19.49;49.52;102122.25;4971336;28;20562;-66
2022/06/02 11:44:01;;;;;;;5.97;5.57;;;;;;;19.23;50.30;102114.88;4971125;28;20030;-66
2022/06/02 11:46:32;;;;;;;5.38;4.97;;;;;;;19.24;50.15;102117.53;4970873;28;20033;-66
2022/06/02 11:49:13;;;;;;;5.47;5.07;;;;;;;19.34;50.46;102113.28;4970515;28;20499;-66
2022/06/02 11:52:09;;;;;;;5.15;4.85;;;;;;;19.32;49.46;102109.75;4970191;28;20027;-66
2022/06/02 11:55:06;;;;;;;5.70;5.13;;;;;;;19.12;50.83;102112.97;4958455;28;20422;-65
2022/06/02 11:57:47;;;;;;;5.63;5.03;;;;;;;19.04;50.47;102104.00;4953480;28;20043;-66
2022/06/02 12:00:44;;;;;;;6.55;5.03;;;;;;;19.22;51.44;102097.31;4970255;28;20026;-66
2022/06/02 12:03:37;;;;;;;4.72;4.30;;;;;;;19.44;51.27;102095.91;4968873;28;20475;-66
2022/06/02 12:06:08;;;;;;;4.05;3.75;;;;;;;19.43;50.72;102099.41;4970113;28;20409;-66
2022/06/02 12:09:07;;;;;;;4.18;3.88;;;;;;;19.45;50.05;102087.16;4957396;28;20034;-66
2022/06/02 12:12:00;;;;;;;4.30;4.00;;;;;;;19.58;47.33;102090.84;4970042;28;20109;-66
2022/06/02 12:15:07;;;;;;;4.20;3.90;;;;;;;19.49;46.36;102093.34;4922684;29;20047;-66
2022/06/02 12:17:47;;;;;;;3.70;3.50;;;;;;;19.36;47.31;102085.28;4960820;28;20038;-66
2022/06/02 12:20:22;;;;;;;3.25;3.05;;;;;;;19.53;47.83;102084.66;4969486;28;20059;-65
2022/06/02 12:22:47;;;;;;;3.42;3.20;;;;;;;19.75;47.25;102070.03;4984972;28;20034;-66
2022/06/02 12:25:30;;;;;;;4.63;4.05;;;;;;;20.06;49.15;102066.94;4970041;28;20042;-66
2022/06/02 12:28:30;;;;;;;4.50;4.10;;;;;;;20.42;49.44;102058.56;4969954;28;20383;-65
2022/06/02 12:31:13;;;;;;;4.50;4.10;;;;;;;20.69;49.35;102065.84;4959086;28;20742;-66
2022/06/02 12:33:38;;;;;;;3.05;2.85;;;;;;;20.78;45.86;102062.41;4969438;28;20038;-65
2022/06/02 12:36:34;;;;;;;4.05;3.75;;;;;;;20.84;45.83;102066.84;4970060;28;20031;-66
2022/06/02 12:39:24;;;;;;;4.55;4.15;;;;;;;21.04;44.79;102061.78;4970036;28;20031;-66
2022/06/02 12:42:11;;;;;;;5.15;4.75;;;;;;;21.03;45.08;102057.34;4968879;28;20113;-66
2022/06/02 12:45:14;;;;;;;4.05;3.85;;;;;;;20.97;45.08;102052.06;4969781;28;20483;-66